Time;durP1;ratioP1;P1;durP2;ratioP2;P2;SDS_P1;SDS_P2;PMS_P1;PMS_P2;Temp;Humidity;BMP_temperature;BMP_pressure;BME280_temperature;BME280_humidity;BME280_pressure;Samples;Min_cycle;Max_cycle;Signal;HPM_P1;HPM_P2
2022/05/07 00:02:11;;;;;;;29.98;24.55;;;13.40;99.90;;;;;;5115513;27;20496;-76
2022/05/07 00:04:37;;;;;;;27.90;24.02;;;13.40;99.90;;;;;;5115134;27;20054;-76
2022/05/07 00:07:06;;;;;;;27.23;23.85;;;13.40;99.90;;;;;;5133531;27;20082;-76
2022/05/07 00:09:32;;;;;;;28.40;22.05;;;13.40;99.90;;;;;;5115030;27;20139;-77
2022/05/07 00:11:58;;;;;;;26.70;23.40;;;13.30;99.90;;;;;;5133702;27;20129;-77
2022/05/07 00:14:23;;;;;;;29.60;24.63;;;13.30;99.90;;;;;;5115449;27;20491;-76
2022/05/07 00:19:34;;;;;;;29.42;25.27;;;13.30;99.90;;;;;;5117523;28;20112;-76
2022/05/07 00:22:00;;;;;;;32.33;24.88;;;13.20;99.90;;;;;;5133495;27;20055;-76
2022/05/07 00:24:26;;;;;;;29.50;24.15;;;13.30;99.90;;;;;;5115126;27;20118;-76
2022/05/07 00:26:52;;;;;;;26.00;23.17;;;13.20;99.90;;;;;;5115005;28;20112;-76
2022/05/07 00:29:17;;;;;;;27.30;23.10;;;13.20;99.90;;;;;;5133522;27;20051;-76
2022/05/07 00:31:43;;;;;;;28.33;23.02;;;13.20;99.90;;;;;;5114790;28;20108;-76
2022/05/07 00:34:08;;;;;;;30.17;23.48;;;13.20;99.90;;;;;;5115053;28;20054;-76
2022/05/07 00:36:34;;;;;;;30.88;24.17;;;13.20;99.90;;;;;;5114723;28;20045;-76
2022/05/07 00:39:00;;;;;;;29.90;24.13;;;13.20;99.90;;;;;;5098179;28;20047;-76
2022/05/07 00:41:26;;;;;;;30.02;24.27;;;13.20;99.90;;;;;;5098126;28;20079;-76
2022/05/07 00:43:52;;;;;;;29.13;24.05;;;13.20;99.90;;;;;;5132933;28;20043;-76
2022/05/07 00:46:25;;;;;;;28.83;24.00;;;13.20;99.90;;;;;;5115156;28;20100;-76
2022/05/07 00:48:51;;;;;;;27.23;23.42;;;13.20;99.90;;;;;;5114844;28;20447;-76
2022/05/07 00:51:35;;;;;;;28.80;23.73;;;13.10;99.90;;;;;;5081276;28;20085;-76
2022/05/07 00:54:10;;;;;;;29.27;22.92;;;13.10;99.90;;;;;;5103086;28;20559;-76
2022/05/07 00:56:36;;;;;;;31.83;24.08;;;13.10;99.90;;;;;;5097919;28;20082;-76
2022/05/07 00:59:02;;;;;;;28.35;23.73;;;13.10;99.90;;;;;;5133058;28;20086;-77
2022/05/07 01:01:28;;;;;;;27.77;23.15;;;13.10;99.90;;;;;;5098255;28;20043;-76
2022/05/07 01:03:54;;;;;;;31.10;23.42;;;13.10;99.90;;;;;;5114302;28;20508;-76
2022/05/07 01:06:20;;;;;;;27.17;23.08;;;13.10;99.90;;;;;;5097466;28;20104;-76
2022/05/07 01:08:47;;;;;;;28.58;23.45;;;13.10;99.90;;;;;;5097548;28;20043;-76
2022/05/07 01:11:13;;;;;;;28.92;24.30;;;13.10;99.90;;;;;;5133085;28;20051;-75
2022/05/07 01:13:39;;;;;;;28.17;24.02;;;13.10;99.90;;;;;;5114447;28;20054;-76
2022/05/07 01:16:05;;;;;;;28.98;24.08;;;13.10;99.90;;;;;;5132897;28;20039;-76
2022/05/07 01:18:30;;;;;;;30.58;24.50;;;13.00;99.90;;;;;;5114691;28;20078;-76
2022/05/07 01:20:57;;;;;;;30.13;24.63;;;13.00;99.90;;;;;;5132512;28;20183;-76
2022/05/07 01:23:23;;;;;;;27.50;24.27;;;13.00;99.90;;;;;;5114881;28;20136;-75
2022/05/07 01:25:49;;;;;;;30.05;25.00;;;13.00;99.90;;;;;;5114256;28;20054;-76
2022/05/07 01:28:15;;;;;;;30.05;24.70;;;13.00;99.90;;;;;;5117272;27;20062;-76
2022/05/07 01:30:40;;;;;;;32.65;25.15;;;13.00;99.90;;;;;;5135950;27;20479;-76
2022/05/07 01:33:07;;;;;;;34.03;26.08;;;13.10;99.90;;;;;;5118187;27;20100;-76
2022/05/07 01:35:33;;;;;;;32.42;26.50;;;13.10;99.90;;;;;;5118497;27;20055;-76
2022/05/07 01:37:58;;;;;;;33.92;26.27;;;13.10;99.90;;;;;;5118075;27;20043;-76
2022/05/07 01:40:24;;;;;;;29.92;26.65;;;13.10;99.90;;;;;;5118105;27;20402;-76
2022/05/07 01:42:50;;;;;;;32.03;26.45;;;13.10;99.90;;;;;;5135912;27;20039;-76
2022/05/07 01:45:15;;;;;;;29.40;24.80;;;13.10;99.90;;;;;;5118226;27;20058;-76
2022/05/07 01:50:25;;;;;;;29.55;25.90;;;13.10;99.90;;;;;;5136246;27;20090;-77
2022/05/07 01:52:51;;;;;;;30.50;25.40;;;13.10;99.90;;;;;;5117517;27;20129;-76
2022/05/07 01:55:17;;;;;;;33.42;27.08;;;13.10;99.90;;;;;;5136198;27;20134;-76
2022/05/07 01:57:42;;;;;;;31.67;26.55;;;13.10;99.90;;;;;;5100834;27;20463;-76
2022/05/07 02:00:08;;;;;;;31.48;25.58;;;13.10;99.90;;;;;;5135682;27;20122;-76
2022/05/07 02:02:34;;;;;;;31.48;26.80;;;13.10;99.90;;;;;;5136137;27;20047;-76
2022/05/07 02:05:00;;;;;;;28.23;25.17;;;13.20;99.90;;;;;;5117246;27;20288;-76
2022/05/07 02:07:26;;;;;;;31.15;26.63;;;13.20;99.90;;;;;;5135797;27;20038;-76
2022/05/07 02:09:52;;;;;;;31.13;25.85;;;13.20;99.90;;;;;;5117160;27;20130;-76
2022/05/07 02:12:17;;;;;;;29.17;25.45;;;13.20;99.90;;;;;;5135910;27;20055;-76
2022/05/07 02:14:43;;;;;;;32.78;25.50;;;13.20;99.90;;;;;;5100167;27;20039;-76
2022/05/07 02:17:09;;;;;;;27.65;24.73;;;13.20;99.90;;;;;;5117537;27;20081;-76
2022/05/07 02:19:35;;;;;;;29.80;25.23;;;13.20;99.90;;;;;;5100582;27;20043;-76
2022/05/07 02:22:00;;;;;;;30.20;25.40;;;13.20;99.90;;;;;;5116961;27;20115;-76
2022/05/07 02:24:27;;;;;;;28.67;25.65;;;13.20;99.90;;;;;;5117438;27;20042;-77
2022/05/07 02:26:52;;;;;;;26.85;23.92;;;13.20;99.90;;;;;;5083424;27;20039;-76
2022/05/07 02:29:18;;;;;;;27.35;24.45;;;13.20;99.90;;;;;;5135129;27;20126;-75
2022/05/07 02:32:03;;;;;;;27.27;24.30;;;13.20;99.90;;;;;;5116996;27;20195;-83
2022/05/07 02:34:30;;;;;;;30.65;24.42;;;13.10;99.90;;;;;;5120135;27;20095;-75
2022/05/07 02:36:56;;;;;;;25.85;23.13;;;13.10;99.90;;;;;;5116790;27;20051;-76
2022/05/07 02:39:22;;;;;;;28.05;23.45;;;13.10;99.90;;;;;;5116240;27;20054;-76
2022/05/07 02:44:31;;;;;;;32.15;23.30;;;13.10;99.90;;;;;;5135218;27;20136;-76
2022/05/07 02:46:57;;;;;;;25.63;22.58;;;13.10;99.90;;;;;;5116394;27;20485;-76
2022/05/07 02:49:23;;;;;;;24.70;21.55;;;13.10;99.90;;;;;;5117228;27;20506;-75
2022/05/07 02:51:48;;;;;;;25.85;23.08;;;13.00;99.90;;;;;;5134882;27;20039;-76
2022/05/07 02:54:14;;;;;;;27.05;24.25;;;13.10;99.90;;;;;;5117044;27;20039;-75
2022/05/07 02:56:40;;;;;;;26.38;23.65;;;13.00;99.90;;;;;;5134601;27;20039;-76
2022/05/07 02:59:05;;;;;;;26.35;23.65;;;13.00;99.90;;;;;;5134520;27;20042;-76
2022/05/07 03:01:31;;;;;;;26.90;24.30;;;13.00;99.90;;;;;;5134941;27;20051;-75
2022/05/07 03:03:57;;;;;;;28.48;24.15;;;13.00;99.90;;;;;;5116004;27;20399;-77
2022/05/07 03:06:22;;;;;;;27.75;23.00;;;13.00;99.90;;;;;;5134782;27;20133;-75
2022/05/07 03:08:48;;;;;;;25.77;23.02;;;12.90;99.90;;;;;;5116418;27;20089;-75
2022/05/07 03:11:14;;;;;;;26.25;23.30;;;12.90;99.90;;;;;;5134835;27;20054;-76
2022/05/07 03:13:40;;;;;;;25.50;22.77;;;12.90;99.90;;;;;;5116576;27;20131;-76
2022/05/07 03:16:06;;;;;;;28.80;22.77;;;12.90;99.90;;;;;;5134254;27;20090;-75
2022/05/07 03:18:32;;;;;;;26.98;24.08;;;12.90;99.90;;;;;;5116272;27;20035;-76
2022/05/07 03:20:58;;;;;;;27.80;22.63;;;12.80;99.90;;;;;;5133944;27;20372;-76
2022/05/07 03:23:25;;;;;;;25.55;22.95;;;12.80;99.90;;;;;;5116268;27;20050;-76
2022/05/07 03:25:51;;;;;;;26.20;23.35;;;12.80;99.90;;;;;;5134110;27;20057;-83
2022/05/07 03:28:16;;;;;;;26.48;22.83;;;12.80;99.90;;;;;;5134300;27;20418;-76
2022/05/07 03:30:42;;;;;;;25.52;22.83;;;12.80;99.90;;;;;;5099248;27;20083;-75
2022/05/07 03:33:08;;;;;;;25.23;22.63;;;12.70;99.90;;;;;;5098917;27;20050;-76
2022/05/07 03:35:33;;;;;;;26.30;23.70;;;12.80;99.90;;;;;;5082240;27;20184;-76
2022/05/07 03:37:59;;;;;;;25.38;22.70;;;12.80;99.90;;;;;;5115449;27;20082;-76
2022/05/07 03:40:25;;;;;;;25.40;22.70;;;12.80;99.90;;;;;;5098917;27;20382;-76
2022/05/07 03:42:51;;;;;;;25.73;23.02;;;12.80;99.90;;;;;;5099146;27;20155;-76
2022/05/07 03:45:16;;;;;;;25.90;23.30;;;12.80;99.90;;;;;;5098664;27;20057;-76
2022/05/07 03:47:42;;;;;;;24.90;22.42;;;12.80;99.90;;;;;;5134046;27;20434;-76
2022/05/07 03:50:08;;;;;;;25.45;22.85;;;12.80;99.90;;;;;;5133593;27;20062;-76
2022/05/07 03:55:41;;;;;;;24.73;22.13;;;12.70;99.90;;;;;;5070130;28;20044;-76
2022/05/07 03:58:10;;;;;;;25.42;22.50;;;12.80;99.90;;;;;;5070021;28;20062;-76
2022/05/07 04:00:37;;;;;;;23.95;21.30;;;12.80;99.90;;;;;;5085549;27;20479;-76
2022/05/07 04:03:04;;;;;;;23.25;20.75;;;12.80;99.90;;;;;;5115261;27;20062;-76
2022/05/07 04:05:29;;;;;;;24.15;21.77;;;12.80;99.90;;;;;;5116040;27;20082;-75
2022/05/07 04:07:55;;;;;;;24.27;21.65;;;12.80;99.90;;;;;;5098784;27;20051;-76
2022/05/07 04:10:20;;;;;;;24.85;22.15;;;12.80;99.90;;;;;;5133476;27;20038;-76
2022/05/07 04:12:51;;;;;;;24.48;21.83;;;12.80;99.90;;;;;;5115863;27;20100;-76
2022/05/07 04:15:17;;;;;;;23.45;21.15;;;12.80;99.90;;;;;;5098683;27;20473;-76
2022/05/07 04:17:43;;;;;;;23.23;20.70;;;12.80;99.90;;;;;;5098842;27;20043;-76
2022/05/07 04:20:09;;;;;;;23.45;21.15;;;12.80;99.90;;;;;;5133297;27;20566;-76
2022/05/07 04:22:35;;;;;;;22.35;20.05;;;12.80;99.90;;;;;;5115539;28;20043;-76
2022/05/07 04:25:02;;;;;;;22.58;20.27;;;12.80;99.90;;;;;;5098163;28;20448;-77
2022/05/07 04:27:28;;;;;;;22.35;19.77;;;12.80;99.90;;;;;;5114881;27;20055;-76
2022/05/07 04:29:53;;;;;;;23.27;20.98;;;12.80;99.90;;;;;;5115274;28;20490;-76
2022/05/07 04:32:19;;;;;;;23.40;20.88;;;12.80;99.90;;;;;;5097915;28;20155;-76
2022/05/07 04:34:45;;;;;;;23.10;20.70;;;12.80;99.90;;;;;;5115192;28;20130;-77
2022/05/07 04:37:10;;;;;;;24.02;20.25;;;12.80;99.90;;;;;;5097671;28;20184;-76
2022/05/07 04:39:36;;;;;;;24.20;21.55;;;12.80;99.90;;;;;;5133186;28;20417;-77
2022/05/07 04:42:02;;;;;;;23.15;20.88;;;12.80;99.90;;;;;;5114687;28;20505;-77
2022/05/07 04:44:28;;;;;;;23.08;20.65;;;12.80;99.90;;;;;;5098237;28;20039;-75
2022/05/07 04:46:54;;;;;;;23.88;21.35;;;12.80;99.90;;;;;;5133478;28;20494;-76
2022/05/07 04:49:21;;;;;;;23.73;21.23;;;12.80;99.90;;;;;;5080988;28;20542;-77
2022/05/07 04:51:50;;;;;;;23.63;21.23;;;12.70;99.90;;;;;;5115321;28;20437;-77
2022/05/07 04:54:20;;;;;;;24.77;21.35;;;12.80;99.90;;;;;;5081552;28;20133;-77
2022/05/07 04:56:49;;;;;;;24.05;21.65;;;12.80;99.90;;;;;;5115215;28;20043;-76
2022/05/07 04:59:15;;;;;;;24.10;21.50;;;12.80;99.90;;;;;;5097559;28;20039;-77
2022/05/07 05:01:40;;;;;;;24.23;21.73;;;12.80;99.90;;;;;;5133698;27;20043;-77
2022/05/07 05:04:06;;;;;;;23.17;20.77;;;12.80;99.90;;;;;;5101882;27;20054;-76
2022/05/07 05:06:32;;;;;;;26.02;20.88;;;12.80;99.90;;;;;;5102102;27;20475;-76
2022/05/07 05:08:57;;;;;;;22.75;20.30;;;12.90;99.90;;;;;;5085408;27;20099;-76
2022/05/07 05:11:23;;;;;;;21.88;19.73;;;12.90;99.90;;;;;;5101756;27;20116;-75
2022/05/07 05:13:49;;;;;;;22.92;20.58;;;12.90;99.90;;;;;;5119093;27;20050;-75
2022/05/07 05:16:14;;;;;;;21.52;19.40;;;12.90;99.90;;;;;;5101530;27;20043;-78
2022/05/07 05:18:41;;;;;;;22.50;20.20;;;12.90;99.90;;;;;;5118776;27;20043;-74
2022/05/07 05:21:06;;;;;;;23.83;21.30;;;12.90;99.90;;;;;;5101719;27;20051;-78
2022/05/07 05:23:32;;;;;;;23.02;20.58;;;12.90;99.90;;;;;;5102150;27;20418;-77
2022/05/07 05:25:57;;;;;;;22.13;19.92;;;12.90;99.90;;;;;;5102193;27;20047;-77
2022/05/07 05:28:23;;;;;;;23.30;20.98;;;12.90;99.90;;;;;;5117956;27;20138;-77
2022/05/07 05:30:51;;;;;;;22.35;20.02;;;13.00;99.90;;;;;;5118906;27;20421;-76
2022/05/07 05:33:20;;;;;;;22.45;20.17;;;13.00;99.90;;;;;;5118689;27;20051;-75
2022/05/07 05:35:46;;;;;;;22.35;19.95;;;13.10;99.90;;;;;;5118821;27;20035;-76
2022/05/07 05:38:12;;;;;;;22.90;20.60;;;13.10;99.90;;;;;;5118407;27;20051;-74
2022/05/07 05:40:37;;;;;;;21.67;19.38;;;13.10;99.90;;;;;;5136748;27;20150;-77
2022/05/07 05:43:03;;;;;;;22.17;19.98;;;13.10;99.90;;;;;;5118802;27;20110;-77
2022/05/07 05:45:29;;;;;;;22.85;20.58;;;13.10;99.90;;;;;;5136326;27;20463;-76
2022/05/07 05:47:54;;;;;;;22.70;20.30;;;13.20;99.90;;;;;;5101309;27;20039;-76
2022/05/07 05:50:20;;;;;;;21.90;19.83;;;13.20;99.90;;;;;;5117800;27;20080;-75
2022/05/07 05:52:46;;;;;;;22.45;20.35;;;13.20;99.90;;;;;;5118365;27;20054;-76
2022/05/07 05:55:11;;;;;;;22.58;20.35;;;13.30;99.90;;;;;;5117899;27;20043;-77
2022/05/07 05:57:37;;;;;;;23.20;20.75;;;13.30;99.90;;;;;;5118542;27;20050;-77
2022/05/07 06:00:07;;;;;;;22.90;20.65;;;13.40;99.90;;;;;;5118190;27;20484;-75
2022/05/07 06:02:33;;;;;;;22.85;20.42;;;13.40;99.90;;;;;;5101301;27;20062;-77
2022/05/07 06:04:59;;;;;;;22.23;20.13;;;13.50;99.90;;;;;;5118000;27;20497;-75
2022/05/07 06:07:24;;;;;;;22.02;19.65;;;13.50;99.90;;;;;;5117774;27;20043;-76
2022/05/07 06:09:50;;;;;;;22.33;19.25;;;13.60;99.90;;;;;;5084290;27;20587;-75
2022/05/07 06:12:16;;;;;;;21.80;19.23;;;13.60;99.90;;;;;;5135643;27;20043;-75
2022/05/07 06:14:41;;;;;;;22.52;20.25;;;13.70;99.90;;;;;;5134886;27;20130;-75
2022/05/07 06:17:07;;;;;;;21.48;19.27;;;13.70;99.90;;;;;;5135895;27;20047;-76
2022/05/07 06:19:32;;;;;;;21.60;19.38;;;13.70;99.90;;;;;;5100123;27;20050;-77
2022/05/07 06:21:58;;;;;;;22.35;19.98;;;13.80;99.90;;;;;;5100939;27;20051;-75
2022/05/07 06:29:52;;;;;;;23.92;21.02;;;13.80;99.90;;;;;;5120295;27;20047;-76
2022/05/07 06:32:18;;;;;;;22.58;20.25;;;13.90;99.90;;;;;;5117138;27;20046;-76
2022/05/07 06:34:43;;;;;;;22.30;19.83;;;13.90;99.90;;;;;;5135361;27;20141;-76
2022/05/07 06:37:09;;;;;;;23.75;21.30;;;13.90;99.90;;;;;;5117173;27;20039;-76
2022/05/07 06:39:35;;;;;;;23.13;20.73;;;13.90;99.90;;;;;;5116747;27;20421;-77
2022/05/07 06:42:00;;;;;;;23.10;20.75;;;13.90;99.90;;;;;;5117524;27;20552;-76
2022/05/07 06:44:26;;;;;;;23.48;21.23;;;13.90;99.90;;;;;;5116913;27;20465;-77
2022/05/07 06:46:51;;;;;;;24.52;21.00;;;13.90;99.90;;;;;;5099953;27;20131;-76
2022/05/07 06:49:18;;;;;;;24.67;22.17;;;13.90;99.90;;;;;;5100259;27;20138;-82
2022/05/07 06:51:44;;;;;;;23.98;21.38;;;13.90;99.90;;;;;;5117258;27;20047;-76
2022/05/07 06:54:10;;;;;;;24.35;21.85;;;13.90;99.90;;;;;;5117230;27;20058;-75
2022/05/07 06:56:35;;;;;;;24.08;21.55;;;13.90;99.90;;;;;;5116431;27;20082;-76
2022/05/07 06:59:02;;;;;;;24.52;21.92;;;14.00;99.90;;;;;;5134912;27;20433;-78
2022/05/07 07:01:27;;;;;;;22.98;20.65;;;14.10;99.90;;;;;;5134674;27;20074;-76
2022/05/07 07:03:53;;;;;;;24.17;21.77;;;14.20;99.90;;;;;;5134802;27;20086;-76
2022/05/07 07:06:19;;;;;;;26.80;21.33;;;14.40;99.90;;;;;;5135046;27;20039;-76
2022/05/07 07:08:44;;;;;;;24.42;21.92;;;14.50;99.90;;;;;;5099668;27;20055;-76
2022/05/07 07:11:10;;;;;;;26.88;21.90;;;14.70;99.90;;;;;;5116964;27;20509;-76
2022/05/07 07:13:36;;;;;;;23.75;21.35;;;14.80;99.90;;;;;;5134539;27;20376;-78
2022/05/07 07:16:01;;;;;;;25.17;22.50;;;14.80;99.90;;;;;;5116669;27;20042;-77
2022/05/07 07:18:27;;;;;;;26.42;23.52;;;14.90;99.90;;;;;;5116091;27;20039;-77
2022/05/07 07:20:53;;;;;;;25.45;22.75;;;14.90;99.90;;;;;;5116763;27;20441;-76
2022/05/07 07:23:18;;;;;;;28.38;24.65;;;15.00;99.90;;;;;;5116652;27;20443;-76
2022/05/07 07:25:44;;;;;;;26.08;23.42;;;15.10;99.90;;;;;;5098947;27;20055;-76
2022/05/07 07:28:11;;;;;;;26.25;23.50;;;15.10;99.90;;;;;;5116200;27;20470;-77
2022/05/07 07:30:37;;;;;;;26.98;23.95;;;15.20;99.90;;;;;;5116103;27;20043;-77
2022/05/07 07:33:04;;;;;;;26.83;23.83;;;15.30;99.90;;;;;;5099670;27;20498;-77
2022/05/07 07:35:30;;;;;;;26.80;23.65;;;15.30;99.90;;;;;;5115932;27;20051;-77
2022/05/07 07:37:56;;;;;;;27.60;24.58;;;15.40;99.90;;;;;;5116254;27;20043;-77
2022/05/07 07:40:22;;;;;;;27.45;24.67;;;15.40;99.90;;;;;;5098777;27;20039;-77
2022/05/07 07:42:47;;;;;;;28.52;24.42;;;15.40;99.90;;;;;;5115854;27;20039;-81
2022/05/07 07:47:59;;;;;;;27.08;24.48;;;15.60;99.90;;;;;;5087638;27;20091;-80
2022/05/07 07:50:29;;;;;;;27.08;24.38;;;15.70;99.90;;;;;;5082829;27;20054;-76
2022/05/07 07:53:04;;;;;;;28.03;25.33;;;15.80;99.90;;;;;;5116057;27;20079;-76
2022/05/07 07:55:30;;;;;;;30.42;24.45;;;16.00;99.90;;;;;;5099803;27;20039;-75
2022/05/07 07:58:00;;;;;;;28.00;25.10;;;16.10;99.90;;;;;;5115642;27;20046;-76
2022/05/07 08:00:26;;;;;;;28.92;25.15;;;16.10;99.90;;;;;;5081824;27;20126;-76
2022/05/07 08:02:53;;;;;;;27.48;24.50;;;16.10;99.90;;;;;;5098471;27;20043;-76
2022/05/07 08:05:37;;;;;;;28.30;25.45;;;16.20;99.70;;;;;;5098915;27;20127;-76
2022/05/07 08:13:42;;;;;;;28.33;25.38;;;16.40;99.10;;;;;;5117873;27;20399;-77
2022/05/07 08:16:08;;;;;;;28.88;25.33;;;16.30;98.60;;;;;;5115600;28;20047;-76
2022/05/07 08:18:34;;;;;;;28.65;25.63;;;16.30;98.80;;;;;;5081232;27;20045;-76
2022/05/07 08:21:00;;;;;;;29.33;26.27;;;16.30;98.90;;;;;;5115003;27;20548;-76
2022/05/07 08:23:26;;;;;;;28.80;25.90;;;16.30;98.70;;;;;;5133567;27;20039;-75
2022/05/07 08:25:52;;;;;;;27.83;25.00;;;16.30;98.80;;;;;;5132887;27;20055;-76
2022/05/07 08:28:19;;;;;;;27.88;24.95;;;16.30;98.70;;;;;;5114846;28;20058;-74
2022/05/07 08:30:45;;;;;;;29.20;26.27;;;16.40;98.40;;;;;;5132809;27;20062;-75
2022/05/07 08:33:10;;;;;;;27.55;24.80;;;16.50;98.30;;;;;;5133274;28;20039;-75
2022/05/07 08:35:36;;;;;;;28.40;25.40;;;16.50;98.50;;;;;;5132611;28;20052;-76
2022/05/07 08:38:02;;;;;;;29.20;26.30;;;16.50;98.10;;;;;;5132471;27;20043;-76
2022/05/07 08:40:27;;;;;;;28.45;25.60;;;16.50;97.80;;;;;;5133204;28;20039;-75
2022/05/07 08:42:56;;;;;;;27.63;24.83;;;16.50;98.00;;;;;;5114934;28;20089;-75
2022/05/07 08:45:22;;;;;;;28.40;25.30;;;16.50;98.00;;;;;;5098556;28;20043;-75
2022/05/07 08:47:53;;;;;;;27.48;24.58;;;16.50;98.00;;;;;;5081107;28;20092;-76
2022/05/07 08:50:19;;;;;;;28.63;25.58;;;16.50;98.10;;;;;;5116105;28;20043;-75
2022/05/07 08:52:45;;;;;;;28.48;25.38;;;16.60;98.10;;;;;;5114492;28;20491;-75
2022/05/07 08:55:16;;;;;;;27.70;24.92;;;16.60;98.00;;;;;;5133449;28;20047;-75
2022/05/07 08:57:42;;;;;;;28.48;25.58;;;16.60;97.60;;;;;;5097946;28;20055;-76
2022/05/07 09:00:09;;;;;;;28.23;25.27;;;16.60;97.50;;;;;;5081224;28;20044;-76
2022/05/07 09:02:55;;;;;;;26.88;24.05;;;16.70;97.00;;;;;;5115423;28;20388;-76
2022/05/07 09:05:22;;;;;;;27.70;24.38;;;16.70;96.00;;;;;;5075044;28;20100;-77
2022/05/07 09:07:54;;;;;;;26.38;23.65;;;16.70;96.40;;;;;;5076972;28;20449;-76
2022/05/07 09:10:20;;;;;;;25.77;23.25;;;16.80;96.30;;;;;;5096665;28;20976;-76
2022/05/07 09:12:46;;;;;;;26.10;23.50;;;16.90;95.90;;;;;;5095595;28;20051;-75
2022/05/07 09:15:12;;;;;;;25.42;22.73;;;16.80;95.60;;;;;;5114489;28;20066;-76
2022/05/07 09:17:37;;;;;;;24.73;22.23;;;16.90;95.60;;;;;;5097431;28;20051;-80
2022/05/07 09:20:18;;;;;;;25.58;22.98;;;17.00;95.40;;;;;;5132722;28;20047;-75
2022/05/07 09:22:49;;;;;;;25.20;22.23;;;17.10;94.50;;;;;;5114613;28;20050;-75
2022/05/07 09:25:22;;;;;;;25.23;22.58;;;17.20;94.40;;;;;;5115020;28;20047;-75
2022/05/07 09:27:51;;;;;;;25.75;23.17;;;17.20;94.40;;;;;;5114176;28;20059;-75
2022/05/07 09:30:21;;;;;;;25.50;22.75;;;17.30;94.50;;;;;;5115311;28;20044;-75
2022/05/07 09:32:48;;;;;;;24.42;21.77;;;17.40;94.70;;;;;;5114479;28;20078;-76
2022/05/07 09:38:01;;;;;;;25.25;22.85;;;17.60;94.00;;;;;;5117310;28;20058;-75
2022/05/07 09:40:27;;;;;;;25.65;23.05;;;17.60;93.60;;;;;;5098089;28;20050;-75
2022/05/07 09:42:56;;;;;;;25.17;22.50;;;17.60;93.50;;;;;;5097488;28;20084;-75
2022/05/07 09:45:21;;;;;;;26.40;23.00;;;17.70;93.20;;;;;;5098389;28;20135;-75
2022/05/07 09:47:47;;;;;;;26.98;24.10;;;17.80;93.40;;;;;;5114904;27;20080;-81
2022/05/07 09:50:24;;;;;;;24.95;22.42;;;17.80;92.70;;;;;;5067902;27;20089;-75
2022/05/07 09:58:19;;;;;;;24.98;21.92;;;17.90;92.70;;;;;;5106601;27;20083;-77
2022/05/07 10:01:07;;;;;;;25.98;22.95;;;18.00;92.80;;;;;;5100545;27;20078;-76
2022/05/07 10:03:56;;;;;;;25.60;23.00;;;18.10;91.70;;;;;;5136317;27;20047;-76
2022/05/07 10:06:47;;;;;;;25.25;22.55;;;18.10;91.70;;;;;;5136393;27;20051;-76
2022/05/07 10:09:42;;;;;;;26.00;23.48;;;18.10;91.40;;;;;;5118826;27;20049;-76
2022/05/07 10:12:08;;;;;;;25.10;21.70;;;18.10;91.70;;;;;;5102748;27;20047;-76
2022/05/07 10:14:34;;;;;;;28.77;25.70;;;18.10;92.20;;;;;;5084289;27;20184;-76
2022/05/07 10:17:00;;;;;;;33.13;28.70;;;18.20;92.70;;;;;;5083652;27;20046;-76
2022/05/07 10:19:45;;;;;;;33.28;29.27;;;18.20;93.00;;;;;;5117721;27;20043;-76
2022/05/07 10:22:23;;;;;;;35.83;29.85;;;18.20;93.40;;;;;;5135611;27;20038;-76
2022/05/07 10:25:05;;;;;;;36.47;30.30;;;18.10;93.40;;;;;;5117463;27;20435;-76
2022/05/07 10:27:32;;;;;;;33.03;27.88;;;18.00;93.50;;;;;;5135638;27;20078;-76
2022/05/07 10:30:12;;;;;;;33.55;28.13;;;18.00;93.40;;;;;;5135419;27;20051;-76
2022/05/07 10:33:07;;;;;;;34.45;28.85;;;18.00;93.40;;;;;;5135791;27;20094;-76
2022/05/07 10:35:42;;;;;;;32.92;29.13;;;17.90;93.20;;;;;;5100517;27;20055;-76
2022/05/07 10:38:16;;;;;;;33.92;28.95;;;17.90;93.10;;;;;;5117090;27;20513;-76
2022/05/07 10:40:51;;;;;;;33.60;28.42;;;17.90;93.20;;;;;;5083531;27;20043;-76
2022/05/07 10:43:34;;;;;;;29.95;26.77;;;18.00;92.90;;;;;;5135731;27;20050;-75
2022/05/07 10:46:20;;;;;;;32.90;27.25;;;18.10;92.70;;;;;;5116965;27;20043;-75
2022/05/07 10:48:46;;;;;;;33.22;28.75;;;18.10;92.20;;;;;;5117108;27;20065;-76
2022/05/07 10:51:27;;;;;;;33.35;28.20;;;18.10;93.00;;;;;;5099968;27;20403;-76
2022/05/07 10:53:57;;;;;;;33.15;27.42;;;18.10;92.50;;;;;;5116671;27;20104;-76
2022/05/07 10:56:24;;;;;;;31.83;25.80;;;18.10;92.60;;;;;;5117243;27;20055;-76
2022/05/07 10:58:54;;;;;;;30.70;26.48;;;18.10;92.50;;;;;;5117175;27;20047;-76
2022/05/07 11:01:21;;;;;;;37.60;28.52;;;18.20;92.80;;;;;;5134713;27;20493;-76
2022/05/07 11:03:47;;;;;;;30.65;25.70;;;18.20;92.20;;;;;;5100227;27;20081;-76
2022/05/07 11:06:13;;;;;;;35.67;27.50;;;18.20;92.40;;;;;;5134740;27;20386;-76
2022/05/07 11:08:53;;;;;;;33.38;29.17;;;18.30;92.30;;;;;;5134875;27;20043;-76
2022/05/07 11:11:19;;;;;;;33.08;27.95;;;18.30;91.00;;;;;;5117177;27;20095;-75
2022/05/07 11:13:49;;;;;;;33.15;27.42;;;18.20;92.00;;;;;;5116870;27;20133;-76
2022/05/07 11:16:17;;;;;;;33.83;28.67;;;18.30;92.00;;;;;;5116485;27;20394;-76
2022/05/07 11:18:49;;;;;;;34.60;28.25;;;18.30;91.90;;;;;;5116960;27;20055;-76
2022/05/07 11:21:14;;;;;;;34.20;28.30;;;18.30;92.10;;;;;;5082859;27;20047;-77
2022/05/07 11:23:42;;;;;;;39.60;29.88;;;18.30;92.30;;;;;;5116808;27;20055;-76
2022/05/07 11:26:20;;;;;;;36.80;30.05;;;18.20;92.40;;;;;;5116360;27;20088;-76
2022/05/07 11:28:46;;;;;;;39.85;30.88;;;18.20;91.80;;;;;;5116710;27;20196;-75
2022/05/07 11:31:14;;;;;;;38.85;30.38;;;18.10;92.60;;;;;;5116012;27;20395;-76
2022/05/07 11:33:40;;;;;;;36.90;30.85;;;18.00;92.80;;;;;;5083077;27;20047;-76
2022/05/07 11:36:07;;;;;;;40.53;31.80;;;18.00;92.80;;;;;;5099016;27;20106;-77
2022/05/07 11:38:36;;;;;;;40.00;32.25;;;18.00;92.80;;;;;;5099383;27;20050;-82
2022/05/07 11:41:09;;;;;;;44.22;34.50;;;18.00;92.80;;;;;;5082457;27;20511;-77
2022/05/07 11:46:19;;;;;;;46.72;35.58;;;18.00;93.60;;;;;;5118550;27;20074;-77
2022/05/07 11:48:45;;;;;;;50.92;36.55;;;17.90;94.20;;;;;;5099211;27;20043;-77
2022/05/07 11:51:10;;;;;;;49.70;36.58;;;17.90;94.30;;;;;;5098921;27;20047;-78
2022/05/07 11:53:36;;;;;;;47.72;37.30;;;17.80;94.70;;;;;;5116051;27;20053;-77
2022/05/07 11:56:11;;;;;;;48.72;36.80;;;17.80;95.40;;;;;;5115545;27;20051;-78
2022/05/07 11:58:40;;;;;;;44.22;35.88;;;17.70;95.50;;;;;;5098956;27;20046;-76
2022/05/07 12:01:16;;;;;;;46.40;36.07;;;17.70;95.50;;;;;;5133727;27;20110;-77
2022/05/07 12:03:42;;;;;;;48.50;35.25;;;17.60;95.70;;;;;;5134224;27;20051;-76
2022/05/07 12:06:08;;;;;;;43.47;34.65;;;17.60;95.70;;;;;;5133626;27;20051;-76
2022/05/07 12:08:34;;;;;;;41.85;33.25;;;17.50;95.90;;;;;;5081907;27;20053;-77
2022/05/07 12:11:00;;;;;;;44.60;33.50;;;17.60;95.90;;;;;;5064832;28;20093;-76
2022/05/07 12:13:25;;;;;;;38.33;30.45;;;17.60;95.40;;;;;;5115349;27;20082;-77
2022/05/07 12:18:37;;;;;;;35.92;27.80;;;17.80;95.10;;;;;;5103943;27;20130;-77
2022/05/07 12:21:02;;;;;;;35.72;27.63;;;17.80;94.40;;;;;;5098539;27;20094;-77
2022/05/07 12:31:40;;;;;;;28.02;19.63;;;18.10;93.10;;;;;;5133720;27;20054;-75
2022/05/07 12:34:06;;;;;;;19.90;16.85;;;18.10;92.60;;;;;;5115079;28;20383;-74
2022/05/07 12:36:32;;;;;;;15.27;13.68;;;18.10;93.20;;;;;;5115488;28;20133;-76
2022/05/07 12:38:59;;;;;;;16.50;13.55;;;18.20;93.50;;;;;;5115359;28;20043;-76
2022/05/07 12:41:29;;;;;;;17.38;12.65;;;18.20;93.60;;;;;;5098091;28;20055;-74
2022/05/07 12:43:54;;;;;;;16.55;11.85;;;18.20;93.40;;;;;;5115154;28;20047;-75
2022/05/07 12:46:20;;;;;;;13.50;11.90;;;18.20;93.70;;;;;;5132997;28;20046;-76
2022/05/07 12:48:46;;;;;;;14.70;11.68;;;18.10;93.30;;;;;;5115224;28;20070;-75
2022/05/07 12:51:12;;;;;;;12.77;10.73;;;18.10;93.40;;;;;;5133213;28;20130;-75
2022/05/07 12:53:38;;;;;;;13.93;10.65;;;18.00;93.40;;;;;;5115417;28;20083;-75
2022/05/07 12:56:07;;;;;;;13.70;10.75;;;17.90;93.20;;;;;;5098192;28;20047;-76
2022/05/07 12:58:33;;;;;;;12.37;9.83;;;17.80;93.40;;;;;;5114885;28;20062;-76
2022/05/07 13:01:00;;;;;;;11.98;9.90;;;17.80;93.60;;;;;;5114847;28;20088;-76
2022/05/07 13:03:26;;;;;;;14.05;11.02;;;17.70;93.70;;;;;;5081241;28;20443;-76
2022/05/07 13:05:51;;;;;;;13.38;11.02;;;17.70;93.80;;;;;;5115212;28;20043;-76
2022/05/07 13:08:17;;;;;;;13.93;11.82;;;17.70;94.00;;;;;;5097915;28;20088;-76
2022/05/07 13:10:43;;;;;;;14.20;11.70;;;17.60;93.70;;;;;;5133603;28;20076;-76
2022/05/07 13:13:09;;;;;;;16.85;11.60;;;17.70;94.10;;;;;;5132927;28;20051;-82
2022/05/07 13:15:35;;;;;;;13.73;11.50;;;17.70;93.60;;;;;;5133374;28;20050;-76
2022/05/07 13:18:00;;;;;;;14.40;12.90;;;17.70;93.20;;;;;;5133305;28;20043;-76